sensor_id;sensor_type;location;lat;lon;timestamp;temperature;humidity
20492;DHT22;10404;51.468;6.762;2023-12-04T00:00:03;0.20;79.10
20492;DHT22;10404;51.468;6.762;2023-12-04T00:02:29;0.30;79.10
20492;DHT22;10404;51.468;6.762;2023-12-04T00:04:55;0.30;79.00
20492;DHT22;10404;51.468;6.762;2023-12-04T00:07:21;0.20;79.10
20492;DHT22;10404;51.468;6.762;2023-12-04T00:09:46;0.20;79.10
20492;DHT22;10404;51.468;6.762;2023-12-04T00:12:12;0.30;79.00
20492;DHT22;10404;51.468;6.762;2023-12-04T00:14:37;0.20;79.00
20492;DHT22;10404;51.468;6.762;2023-12-04T00:17:03;0.20;79.10
20492;DHT22;10404;51.468;6.762;2023-12-04T00:19:28;0.20;79.10
20492;DHT22;10404;51.468;6.762;2023-12-04T00:21:54;0.20;79.10
20492;DHT22;10404;51.468;6.762;2023-12-04T00:24:19;0.20;79.00
20492;DHT22;10404;51.468;6.762;2023-12-04T00:26:45;0.20;79.10
20492;DHT22;10404;51.468;6.762;2023-12-04T00:29:11;0.20;79.10
20492;DHT22;10404;51.468;6.762;2023-12-04T00:31:36;0.20;79.10
20492;DHT22;10404;51.468;6.762;2023-12-04T00:34:02;0.20;79.00
20492;DHT22;10404;51.468;6.762;2023-12-04T00:36:27;0.20;79.10
20492;DHT22;10404;51.468;6.762;2023-12-04T00:38:53;0.20;79.10
20492;DHT22;10404;51.468;6.762;2023-12-04T00:41:19;0.20;79.10
20492;DHT22;10404;51.468;6.762;2023-12-04T00:43:44;0.20;79.10
20492;DHT22;10404;51.468;6.762;2023-12-04T00:46:10;0.20;79.10
20492;DHT22;10404;51.468;6.762;2023-12-04T00:48:35;0.20;79.10
20492;DHT22;10404;51.468;6.762;2023-12-04T00:51:01;0.20;79.20
20492;DHT22;10404;51.468;6.762;2023-12-04T00:53:26;0.20;79.10
20492;DHT22;10404;51.468;6.762;2023-12-04T00:55:52;0.20;79.10
20492;DHT22;10404;51.468;6.762;2023-12-04T00:58:18;0.20;79.10
20492;DHT22;10404;51.468;6.762;2023-12-04T01:00:43;0.20;79.10
20492;DHT22;10404;51.468;6.762;2023-12-04T01:03:09;0.20;79.00
20492;DHT22;10404;51.468;6.762;2023-12-04T01:05:34;0.20;79.10
20492;DHT22;10404;51.468;6.762;2023-12-04T01:08:00;0.20;79.10
20492;DHT22;10404;51.468;6.762;2023-12-04T01:10:25;0.20;79.10
20492;DHT22;10404;51.468;6.762;2023-12-04T01:12:51;0.20;79.10
20492;DHT22;10404;51.468;6.762;2023-12-04T01:15:16;0.20;79.00
20492;DHT22;10404;51.468;6.762;2023-12-04T01:17:42;0.20;79.00
20492;DHT22;10404;51.468;6.762;2023-12-04T01:20:08;0.10;79.00
20492;DHT22;10404;51.468;6.762;2023-12-04T01:22:33;0.20;79.00
20492;DHT22;10404;51.468;6.762;2023-12-04T01:24:59;0.20;79.00
20492;DHT22;10404;51.468;6.762;2023-12-04T01:27:24;0.10;79.10
20492;DHT22;10404;51.468;6.762;2023-12-04T01:29:50;0.10;79.10
20492;DHT22;10404;51.468;6.762;2023-12-04T01:32:15;0.10;79.10
20492;DHT22;10404;51.468;6.762;2023-12-04T01:34:41;0.10;79.00
20492;DHT22;10404;51.468;6.762;2023-12-04T01:37:06;0.10;79.00
20492;DHT22;10404;51.468;6.762;2023-12-04T01:39:32;0.10;79.00
20492;DHT22;10404;51.468;6.762;2023-12-04T01:41:58;0.10;79.10
20492;DHT22;10404;51.468;6.762;2023-12-04T01:44:24;0.10;79.10
20492;DHT22;10404;51.468;6.762;2023-12-04T01:46:49;0.10;79.10
20492;DHT22;10404;51.468;6.762;2023-12-04T01:49:15;0.10;79.10
20492;DHT22;10404;51.468;6.762;2023-12-04T01:51:42;0.10;79.00
20492;DHT22;10404;51.468;6.762;2023-12-04T01:54:08;0.10;79.10
20492;DHT22;10404;51.468;6.762;2023-12-04T01:56:34;0.10;79.00
20492;DHT22;10404;51.468;6.762;2023-12-04T01:59:02;0.00;79.00
20492;DHT22;10404;51.468;6.762;2023-12-04T02:01:28;0.10;79.00
20492;DHT22;10404;51.468;6.762;2023-12-04T02:03:55;0.00;79.00
20492;DHT22;10404;51.468;6.762;2023-12-04T02:06:22;0.00;79.00
20492;DHT22;10404;51.468;6.762;2023-12-04T02:08:48;0.10;79.00
20492;DHT22;10404;51.468;6.762;2023-12-04T02:11:13;0.10;79.00
20492;DHT22;10404;51.468;6.762;2023-12-04T02:13:39;0.00;78.90
20492;DHT22;10404;51.468;6.762;2023-12-04T02:16:09;0.00;78.90
20492;DHT22;10404;51.468;6.762;2023-12-04T02:18:36;0.00;78.90
20492;DHT22;10404;51.468;6.762;2023-12-04T02:21:01;0.00;78.90
20492;DHT22;10404;51.468;6.762;2023-12-04T02:23:28;0.00;78.90
20492;DHT22;10404;51.468;6.762;2023-12-04T02:26:01;0.00;78.80
20492;DHT22;10404;51.468;6.762;2023-12-04T02:28:32;0.00;78.90
20492;DHT22;10404;51.468;6.762;2023-12-04T02:31:01;0.00;78.90
20492;DHT22;10404;51.468;6.762;2023-12-04T02:33:29;0.00;78.70
20492;DHT22;10404;51.468;6.762;2023-12-04T02:35:55;0.00;78.80
20492;DHT22;10404;51.468;6.762;2023-12-04T02:38:22;0.00;78.80
20492;DHT22;10404;51.468;6.762;2023-12-04T02:40:48;0.00;78.70
20492;DHT22;10404;51.468;6.762;2023-12-04T02:43:13;0.00;78.70
20492;DHT22;10404;51.468;6.762;2023-12-04T02:45:39;0.00;78.70
20492;DHT22;10404;51.468;6.762;2023-12-04T02:48:05;0.00;78.60
20492;DHT22;10404;51.468;6.762;2023-12-04T02:50:30;0.00;78.40
20492;DHT22;10404;51.468;6.762;2023-12-04T02:52:56;0.00;78.40
20492;DHT22;10404;51.468;6.762;2023-12-04T02:55:21;0.00;78.40
20492;DHT22;10404;51.468;6.762;2023-12-04T02:57:47;0.00;78.60
20492;DHT22;10404;51.468;6.762;2023-12-04T03:00:12;0.00;78.60
20492;DHT22;10404;51.468;6.762;2023-12-04T03:02:38;0.00;78.50
20492;DHT22;10404;51.468;6.762;2023-12-04T03:05:04;0.00;78.60
20492;DHT22;10404;51.468;6.762;2023-12-04T03:07:29;0.00;78.50
20492;DHT22;10404;51.468;6.762;2023-12-04T03:09:55;0.00;78.50
20492;DHT22;10404;51.468;6.762;2023-12-04T03:12:20;0.00;78.60
20492;DHT22;10404;51.468;6.762;2023-12-04T03:14:46;0.00;78.50
20492;DHT22;10404;51.468;6.762;2023-12-04T03:17:12;0.00;78.40
20492;DHT22;10404;51.468;6.762;2023-12-04T03:19:37;0.00;78.50
20492;DHT22;10404;51.468;6.762;2023-12-04T03:22:03;0.00;78.60
20492;DHT22;10404;51.468;6.762;2023-12-04T03:24:28;0.00;78.60
20492;DHT22;10404;51.468;6.762;2023-12-04T03:26:54;0.00;78.60
20492;DHT22;10404;51.468;6.762;2023-12-04T03:29:20;0.00;78.50
20492;DHT22;10404;51.468;6.762;2023-12-04T03:31:45;0.00;78.50
20492;DHT22;10404;51.468;6.762;2023-12-04T03:34:11;0.00;78.50
20492;DHT22;10404;51.468;6.762;2023-12-04T03:36:36;0.00;78.40
20492;DHT22;10404;51.468;6.762;2023-12-04T03:39:02;0.00;78.40
20492;DHT22;10404;51.468;6.762;2023-12-04T03:41:28;0.00;78.30
20492;DHT22;10404;51.468;6.762;2023-12-04T03:43:53;0.00;78.30
20492;DHT22;10404;51.468;6.762;2023-12-04T03:46:19;0.00;78.40
20492;DHT22;10404;51.468;6.762;2023-12-04T03:48:45;0.00;78.50
20492;DHT22;10404;51.468;6.762;2023-12-04T03:51:11;0.00;78.50
20492;DHT22;10404;51.468;6.762;2023-12-04T03:53:36;0.00;78.50
20492;DHT22;10404;51.468;6.762;2023-12-04T03:56:02;0.00;78.40
20492;DHT22;10404;51.468;6.762;2023-12-04T03:58:28;0.00;78.40
20492;DHT22;10404;51.468;6.762;2023-12-04T04:00:53;0.00;78.40
20492;DHT22;10404;51.468;6.762;2023-12-04T04:03:19;0.00;78.40
20492;DHT22;10404;51.468;6.762;2023-12-04T04:05:44;0.00;78.20
20492;DHT22;10404;51.468;6.762;2023-12-04T04:08:10;0.00;78.30
20492;DHT22;10404;51.468;6.762;2023-12-04T04:10:36;0.00;78.40
20492;DHT22;10404;51.468;6.762;2023-12-04T04:13:01;0.00;78.40
20492;DHT22;10404;51.468;6.762;2023-12-04T04:15:27;0.00;78.40
20492;DHT22;10404;51.468;6.762;2023-12-04T04:17:53;0.00;78.40
20492;DHT22;10404;51.468;6.762;2023-12-04T04:20:18;0.00;78.40
20492;DHT22;10404;51.468;6.762;2023-12-04T04:22:44;0.00;78.20
20492;DHT22;10404;51.468;6.762;2023-12-04T04:25:12;0.00;78.30
20492;DHT22;10404;51.468;6.762;2023-12-04T04:27:37;0.00;78.20
20492;DHT22;10404;51.468;6.762;2023-12-04T04:30:03;0.00;78.20
20492;DHT22;10404;51.468;6.762;2023-12-04T04:32:28;0.00;78.20
20492;DHT22;10404;51.468;6.762;2023-12-04T04:34:54;0.00;78.10
20492;DHT22;10404;51.468;6.762;2023-12-04T04:37:20;0.00;78.20
20492;DHT22;10404;51.468;6.762;2023-12-04T04:39:45;0.00;78.20
20492;DHT22;10404;51.468;6.762;2023-12-04T04:42:11;0.00;78.10
20492;DHT22;10404;51.468;6.762;2023-12-04T04:44:36;0.00;78.10
20492;DHT22;10404;51.468;6.762;2023-12-04T04:47:02;0.00;78.10
20492;DHT22;10404;51.468;6.762;2023-12-04T04:49:28;0.00;78.10
20492;DHT22;10404;51.468;6.762;2023-12-04T04:51:54;0.00;78.10
20492;DHT22;10404;51.468;6.762;2023-12-04T04:54:19;0.00;77.90
20492;DHT22;10404;51.468;6.762;2023-12-04T04:56:45;0.00;78.10
20492;DHT22;10404;51.468;6.762;2023-12-04T04:59:10;0.00;78.10
20492;DHT22;10404;51.468;6.762;2023-12-04T05:01:36;0.00;78.10
20492;DHT22;10404;51.468;6.762;2023-12-04T05:04:02;0.00;78.10
20492;DHT22;10404;51.468;6.762;2023-12-04T05:06:28;0.00;78.10
20492;DHT22;10404;51.468;6.762;2023-12-04T05:08:54;0.00;78.10
20492;DHT22;10404;51.468;6.762;2023-12-04T05:11:19;0.00;78.00
20492;DHT22;10404;51.468;6.762;2023-12-04T05:13:45;0.00;78.00
20492;DHT22;10404;51.468;6.762;2023-12-04T05:16:11;0.00;78.00
20492;DHT22;10404;51.468;6.762;2023-12-04T05:18:38;0.00;78.00
20492;DHT22;10404;51.468;6.762;2023-12-04T05:21:11;0.00;78.00
20492;DHT22;10404;51.468;6.762;2023-12-04T05:23:37;0.00;78.00
20492;DHT22;10404;51.468;6.762;2023-12-04T05:26:03;0.00;78.00
20492;DHT22;10404;51.468;6.762;2023-12-04T05:28:29;0.00;78.00
20492;DHT22;10404;51.468;6.762;2023-12-04T05:30:55;0.00;78.00
20492;DHT22;10404;51.468;6.762;2023-12-04T05:33:21;0.00;77.90
20492;DHT22;10404;51.468;6.762;2023-12-04T05:35:48;0.00;77.70
20492;DHT22;10404;51.468;6.762;2023-12-04T05:38:13;0.00;77.90
20492;DHT22;10404;51.468;6.762;2023-12-04T05:40:39;0.00;77.80
20492;DHT22;10404;51.468;6.762;2023-12-04T05:43:04;0.00;77.90
20492;DHT22;10404;51.468;6.762;2023-12-04T05:45:30;0.00;77.90
20492;DHT22;10404;51.468;6.762;2023-12-04T05:47:55;0.00;77.80
20492;DHT22;10404;51.468;6.762;2023-12-04T05:50:21;0.00;77.80
20492;DHT22;10404;51.468;6.762;2023-12-04T05:52:47;0.00;77.80
20492;DHT22;10404;51.468;6.762;2023-12-04T05:55:12;0.00;77.70
20492;DHT22;10404;51.468;6.762;2023-12-04T05:57:39;0.00;77.70
20492;DHT22;10404;51.468;6.762;2023-12-04T06:00:06;0.00;77.70
20492;DHT22;10404;51.468;6.762;2023-12-04T06:02:43;0.00;77.50
20492;DHT22;10404;51.468;6.762;2023-12-04T06:05:09;0.00;77.60
20492;DHT22;10404;51.468;6.762;2023-12-04T06:07:35;0.00;77.70
20492;DHT22;10404;51.468;6.762;2023-12-04T06:10:02;0.00;77.70
20492;DHT22;10404;51.468;6.762;2023-12-04T06:12:30;-0.10;77.80
20492;DHT22;10404;51.468;6.762;2023-12-04T06:14:55;0.00;77.70
20492;DHT22;10404;51.468;6.762;2023-12-04T06:17:21;-0.10;77.70
20492;DHT22;10404;51.468;6.762;2023-12-04T06:19:46;-0.10;77.80
20492;DHT22;10404;51.468;6.762;2023-12-04T06:22:12;0.00;77.80
20492;DHT22;10404;51.468;6.762;2023-12-04T06:24:38;0.00;77.70
20492;DHT22;10404;51.468;6.762;2023-12-04T06:27:04;0.00;77.50
20492;DHT22;10404;51.468;6.762;2023-12-04T06:29:31;0.00;77.50
20492;DHT22;10404;51.468;6.762;2023-12-04T06:31:58;0.00;77.50
20492;DHT22;10404;51.468;6.762;2023-12-04T06:34:24;0.00;77.50
20492;DHT22;10404;51.468;6.762;2023-12-04T06:36:50;0.00;77.50
20492;DHT22;10404;51.468;6.762;2023-12-04T06:39:16;0.00;77.50
20492;DHT22;10404;51.468;6.762;2023-12-04T06:41:43;-0.10;77.50
20492;DHT22;10404;51.468;6.762;2023-12-04T06:44:09;-0.10;77.60
20492;DHT22;10404;51.468;6.762;2023-12-04T06:46:39;0.00;77.50
20492;DHT22;10404;51.468;6.762;2023-12-04T06:49:06;-0.10;77.60
20492;DHT22;10404;51.468;6.762;2023-12-04T06:51:32;0.00;77.60
20492;DHT22;10404;51.468;6.762;2023-12-04T06:53:58;-0.10;77.60
20492;DHT22;10404;51.468;6.762;2023-12-04T06:56:23;0.00;77.60
20492;DHT22;10404;51.468;6.762;2023-12-04T06:58:49;-0.10;77.60
20492;DHT22;10404;51.468;6.762;2023-12-04T07:01:14;0.00;77.60
20492;DHT22;10404;51.468;6.762;2023-12-04T07:03:40;-0.10;77.60
20492;DHT22;10404;51.468;6.762;2023-12-04T07:06:06;0.00;77.60
20492;DHT22;10404;51.468;6.762;2023-12-04T07:08:32;0.00;77.50
20492;DHT22;10404;51.468;6.762;2023-12-04T07:10:57;0.00;77.50
20492;DHT22;10404;51.468;6.762;2023-12-04T07:13:23;0.00;77.50
20492;DHT22;10404;51.468;6.762;2023-12-04T07:15:48;0.00;77.50
20492;DHT22;10404;51.468;6.762;2023-12-04T07:18:14;-0.10;77.60
20492;DHT22;10404;51.468;6.762;2023-12-04T07:20:39;-0.10;77.60
20492;DHT22;10404;51.468;6.762;2023-12-04T07:23:05;-0.10;77.60
20492;DHT22;10404;51.468;6.762;2023-12-04T07:25:30;-0.10;77.60
20492;DHT22;10404;51.468;6.762;2023-12-04T07:27:56;0.00;77.50
20492;DHT22;10404;51.468;6.762;2023-12-04T07:30:23;-0.10;77.60
20492;DHT22;10404;51.468;6.762;2023-12-04T07:32:50;-0.10;77.50
20492;DHT22;10404;51.468;6.762;2023-12-04T07:35:16;-0.10;77.50
20492;DHT22;10404;51.468;6.762;2023-12-04T07:37:43;-0.10;77.60
20492;DHT22;10404;51.468;6.762;2023-12-04T07:40:09;-0.10;77.60
20492;DHT22;10404;51.468;6.762;2023-12-04T07:42:36;-0.10;77.60
20492;DHT22;10404;51.468;6.762;2023-12-04T07:45:02;-0.10;77.50
20492;DHT22;10404;51.468;6.762;2023-12-04T07:47:28;-0.10;77.50
20492;DHT22;10404;51.468;6.762;2023-12-04T07:49:53;-0.10;77.50
20492;DHT22;10404;51.468;6.762;2023-12-04T07:52:19;-0.10;77.50
20492;DHT22;10404;51.468;6.762;2023-12-04T07:54:44;-0.10;77.50
20492;DHT22;10404;51.468;6.762;2023-12-04T07:57:10;-0.10;77.50
20492;DHT22;10404;51.468;6.762;2023-12-04T07:59:35;-0.10;77.40
20492;DHT22;10404;51.468;6.762;2023-12-04T08:02:01;-0.10;77.50
20492;DHT22;10404;51.468;6.762;2023-12-04T08:04:26;-0.10;77.50
20492;DHT22;10404;51.468;6.762;2023-12-04T08:06:52;-0.10;77.50
20492;DHT22;10404;51.468;6.762;2023-12-04T08:09:18;-0.10;77.40
20492;DHT22;10404;51.468;6.762;2023-12-04T08:11:44;-0.10;77.40
20492;DHT22;10404;51.468;6.762;2023-12-04T08:14:09;0.00;77.40
20492;DHT22;10404;51.468;6.762;2023-12-04T08:16:35;-0.10;77.40
20492;DHT22;10404;51.468;6.762;2023-12-04T08:19:00;-0.10;77.50
20492;DHT22;10404;51.468;6.762;2023-12-04T08:21:26;0.00;77.50
20492;DHT22;10404;51.468;6.762;2023-12-04T08:23:51;-0.10;77.30
20492;DHT22;10404;51.468;6.762;2023-12-04T08:26:25;0.00;77.30
20492;DHT22;10404;51.468;6.762;2023-12-04T08:28:54;-0.10;77.40
20492;DHT22;10404;51.468;6.762;2023-12-04T08:31:19;-0.10;77.30
20492;DHT22;10404;51.468;6.762;2023-12-04T08:33:45;0.00;77.40
20492;DHT22;10404;51.468;6.762;2023-12-04T08:36:11;-0.10;77.50
20492;DHT22;10404;51.468;6.762;2023-12-04T08:38:37;-0.10;77.00
20492;DHT22;10404;51.468;6.762;2023-12-04T08:41:04;0.00;77.00
20492;DHT22;10404;51.468;6.762;2023-12-04T08:43:30;0.00;77.00
20492;DHT22;10404;51.468;6.762;2023-12-04T08:45:55;0.00;77.00
20492;DHT22;10404;51.468;6.762;2023-12-04T08:48:21;0.00;77.10
20492;DHT22;10404;51.468;6.762;2023-12-04T08:50:47;0.00;77.00
20492;DHT22;10404;51.468;6.762;2023-12-04T08:53:13;0.00;76.90
20492;DHT22;10404;51.468;6.762;2023-12-04T08:55:39;0.00;77.00
20492;DHT22;10404;51.468;6.762;2023-12-04T08:58:04;0.00;77.00
20492;DHT22;10404;51.468;6.762;2023-12-04T09:00:30;0.00;76.40
20492;DHT22;10404;51.468;6.762;2023-12-04T09:02:55;0.00;76.70
20492;DHT22;10404;51.468;6.762;2023-12-04T09:05:21;0.00;76.80
20492;DHT22;10404;51.468;6.762;2023-12-04T09:07:47;0.00;76.80
20492;DHT22;10404;51.468;6.762;2023-12-04T09:10:13;0.00;76.70
20492;DHT22;10404;51.468;6.762;2023-12-04T09:12:39;0.00;76.60
20492;DHT22;10404;51.468;6.762;2023-12-04T09:15:05;0.00;76.70
20492;DHT22;10404;51.468;6.762;2023-12-04T09:17:31;0.00;76.70
20492;DHT22;10404;51.468;6.762;2023-12-04T09:19:57;0.00;76.60
20492;DHT22;10404;51.468;6.762;2023-12-04T09:22:22;0.00;76.50
20492;DHT22;10404;51.468;6.762;2023-12-04T09:24:48;0.00;76.50
20492;DHT22;10404;51.468;6.762;2023-12-04T09:27:13;0.00;76.50
20492;DHT22;10404;51.468;6.762;2023-12-04T09:29:40;0.00;76.20
20492;DHT22;10404;51.468;6.762;2023-12-04T09:32:06;0.00;76.50
20492;DHT22;10404;51.468;6.762;2023-12-04T09:34:32;0.00;76.60
20492;DHT22;10404;51.468;6.762;2023-12-04T09:36:57;0.00;76.60
20492;DHT22;10404;51.468;6.762;2023-12-04T09:39:23;0.00;76.70
20492;DHT22;10404;51.468;6.762;2023-12-04T09:41:49;0.00;76.60
20492;DHT22;10404;51.468;6.762;2023-12-04T09:44:16;0.00;76.70
20492;DHT22;10404;51.468;6.762;2023-12-04T09:46:42;0.00;76.60
20492;DHT22;10404;51.468;6.762;2023-12-04T09:49:08;0.00;76.60
20492;DHT22;10404;51.468;6.762;2023-12-04T09:51:34;0.00;76.40
20492;DHT22;10404;51.468;6.762;2023-12-04T09:54:02;0.00;76.50
20492;DHT22;10404;51.468;6.762;2023-12-04T09:56:34;0.10;76.50
20492;DHT22;10404;51.468;6.762;2023-12-04T09:59:01;0.10;76.60
20492;DHT22;10404;51.468;6.762;2023-12-04T10:01:29;0.10;76.10
20492;DHT22;10404;51.468;6.762;2023-12-04T10:03:56;0.10;76.40
20492;DHT22;10404;51.468;6.762;2023-12-04T10:06:26;0.20;75.20
20492;DHT22;10404;51.468;6.762;2023-12-04T10:08:51;0.20;75.90
20492;DHT22;10404;51.468;6.762;2023-12-04T10:11:17;0.20;75.90
20492;DHT22;10404;51.468;6.762;2023-12-04T10:13:43;0.20;76.10
20492;DHT22;10404;51.468;6.762;2023-12-04T10:16:08;0.20;76.20
20492;DHT22;10404;51.468;6.762;2023-12-04T10:18:34;0.20;76.20
20492;DHT22;10404;51.468;6.762;2023-12-04T10:21:02;0.20;76.20
20492;DHT22;10404;51.468;6.762;2023-12-04T10:23:42;0.20;76.00
20492;DHT22;10404;51.468;6.762;2023-12-04T10:26:08;0.20;75.90
20492;DHT22;10404;51.468;6.762;2023-12-04T10:28:34;0.20;76.20
20492;DHT22;10404;51.468;6.762;2023-12-04T10:31:00;0.20;76.10
20492;DHT22;10404;51.468;6.762;2023-12-04T10:33:26;0.20;76.20
20492;DHT22;10404;51.468;6.762;2023-12-04T10:35:53;0.30;75.70
20492;DHT22;10404;51.468;6.762;2023-12-04T10:38:20;0.30;76.00
20492;DHT22;10404;51.468;6.762;2023-12-04T10:40:46;0.30;75.80
20492;DHT22;10404;51.468;6.762;2023-12-04T10:43:15;0.30;75.70
20492;DHT22;10404;51.468;6.762;2023-12-04T10:45:42;0.30;76.00
20492;DHT22;10404;51.468;6.762;2023-12-04T10:48:09;0.30;76.10
20492;DHT22;10404;51.468;6.762;2023-12-04T10:50:43;0.30;76.00
20492;DHT22;10404;51.468;6.762;2023-12-04T10:53:11;0.30;76.00
20492;DHT22;10404;51.468;6.762;2023-12-04T10:55:38;0.30;76.10
20492;DHT22;10404;51.468;6.762;2023-12-04T10:58:09;0.30;76.20
20492;DHT22;10404;51.468;6.762;2023-12-04T11:00:55;0.40;76.40
20492;DHT22;10404;51.468;6.762;2023-12-04T11:03:32;0.40;76.20
20492;DHT22;10404;51.468;6.762;2023-12-04T11:06:01;0.40;76.40
20492;DHT22;10404;51.468;6.762;2023-12-04T11:08:33;0.40;76.20
20492;DHT22;10404;51.468;6.762;2023-12-04T11:11:02;0.40;76.10
20492;DHT22;10404;51.468;6.762;2023-12-04T11:13:42;0.40;75.90
20492;DHT22;10404;51.468;6.762;2023-12-04T11:16:27;0.50;75.90
20492;DHT22;10404;51.468;6.762;2023-12-04T11:21:39;0.40;75.80
20492;DHT22;10404;51.468;6.762;2023-12-04T11:24:06;0.40;75.90
20492;DHT22;10404;51.468;6.762;2023-12-04T11:26:33;0.50;76.00
20492;DHT22;10404;51.468;6.762;2023-12-04T11:28:59;0.50;76.20
20492;DHT22;10404;51.468;6.762;2023-12-04T11:31:25;0.50;76.20
20492;DHT22;10404;51.468;6.762;2023-12-04T11:33:51;0.50;76.20
20492;DHT22;10404;51.468;6.762;2023-12-04T11:36:17;0.50;76.00
20492;DHT22;10404;51.468;6.762;2023-12-04T11:38:47;0.50;76.30
20492;DHT22;10404;51.468;6.762;2023-12-04T11:41:19;0.50;76.30
20492;DHT22;10404;51.468;6.762;2023-12-04T11:43:46;0.50;76.30
20492;DHT22;10404;51.468;6.762;2023-12-04T11:46:22;0.50;76.20
20492;DHT22;10404;51.468;6.762;2023-12-04T11:48:48;0.50;76.30
20492;DHT22;10404;51.468;6.762;2023-12-04T11:54:08;0.60;76.40
20492;DHT22;10404;51.468;6.762;2023-12-04T11:56:34;0.60;76.50
20492;DHT22;10404;51.468;6.762;2023-12-04T11:59:07;0.60;76.60
20492;DHT22;10404;51.468;6.762;2023-12-04T12:01:36;0.60;76.70
20492;DHT22;10404;51.468;6.762;2023-12-04T12:04:05;0.60;76.70
20492;DHT22;10404;51.468;6.762;2023-12-04T12:06:30;0.60;76.80
20492;DHT22;10404;51.468;6.762;2023-12-04T12:08:56;0.60;76.80
20492;DHT22;10404;51.468;6.762;2023-12-04T12:11:23;0.60;77.00
20492;DHT22;10404;51.468;6.762;2023-12-04T12:13:49;0.60;77.00
20492;DHT22;10404;51.468;6.762;2023-12-04T12:16:14;0.60;77.10
20492;DHT22;10404;51.468;6.762;2023-12-04T12:18:41;0.60;77.20
20492;DHT22;10404;51.468;6.762;2023-12-04T12:21:07;0.60;77.50
20492;DHT22;10404;51.468;6.762;2023-12-04T12:23:33;0.60;77.50
20492;DHT22;10404;51.468;6.762;2023-12-04T12:25:59;0.60;77.60
20492;DHT22;10404;51.468;6.762;2023-12-04T12:28:25;0.60;77.80
20492;DHT22;10404;51.468;6.762;2023-12-04T12:30:50;0.60;77.90
20492;DHT22;10404;51.468;6.762;2023-12-04T12:33:19;0.60;78.00
20492;DHT22;10404;51.468;6.762;2023-12-04T12:35:46;0.60;77.90
20492;DHT22;10404;51.468;6.762;2023-12-04T12:38:12;0.60;78.10
20492;DHT22;10404;51.468;6.762;2023-12-04T12:40:38;0.60;78.10
20492;DHT22;10404;51.468;6.762;2023-12-04T12:43:09;0.60;78.20
20492;DHT22;10404;51.468;6.762;2023-12-04T12:45:42;0.60;78.30
20492;DHT22;10404;51.468;6.762;2023-12-04T12:48:15;0.60;78.40
20492;DHT22;10404;51.468;6.762;2023-12-04T12:50:42;0.60;78.40
20492;DHT22;10404;51.468;6.762;2023-12-04T12:53:08;0.60;78.60
20492;DHT22;10404;51.468;6.762;2023-12-04T12:55:41;0.60;78.60
20492;DHT22;10404;51.468;6.762;2023-12-04T12:58:06;0.60;78.50
20492;DHT22;10404;51.468;6.762;2023-12-04T13:00:35;0.60;78.70
20492;DHT22;10404;51.468;6.762;2023-12-04T13:03:01;0.70;78.70
20492;DHT22;10404;51.468;6.762;2023-12-04T13:05:27;0.60;78.70
20492;DHT22;10404;51.468;6.762;2023-12-04T13:07:53;0.70;78.80
20492;DHT22;10404;51.468;6.762;2023-12-04T13:10:19;0.70;78.80
20492;DHT22;10404;51.468;6.762;2023-12-04T13:12:45;0.70;78.80
20492;DHT22;10404;51.468;6.762;2023-12-04T13:15:10;0.70;78.80
20492;DHT22;10404;51.468;6.762;2023-12-04T13:17:36;0.70;78.80
20492;DHT22;10404;51.468;6.762;2023-12-04T13:20:02;0.80;78.90
20492;DHT22;10404;51.468;6.762;2023-12-04T13:22:30;0.80;79.00
20492;DHT22;10404;51.468;6.762;2023-12-04T13:24:58;0.80;79.10
20492;DHT22;10404;51.468;6.762;2023-12-04T13:27:23;0.80;79.20
20492;DHT22;10404;51.468;6.762;2023-12-04T13:29:49;0.80;79.20
20492;DHT22;10404;51.468;6.762;2023-12-04T13:32:16;0.80;79.40
20492;DHT22;10404;51.468;6.762;2023-12-04T13:34:41;0.80;79.40
20492;DHT22;10404;51.468;6.762;2023-12-04T13:37:08;0.80;79.30
20492;DHT22;10404;51.468;6.762;2023-12-04T13:39:33;0.80;79.20
20492;DHT22;10404;51.468;6.762;2023-12-04T13:42:14;0.90;79.40
20492;DHT22;10404;51.468;6.762;2023-12-04T13:44:59;0.90;79.60
20492;DHT22;10404;51.468;6.762;2023-12-04T13:47:24;0.90;79.70
20492;DHT22;10404;51.468;6.762;2023-12-04T13:49:50;0.90;79.80
20492;DHT22;10404;51.468;6.762;2023-12-04T13:52:16;0.90;79.80
20492;DHT22;10404;51.468;6.762;2023-12-04T13:54:45;0.90;79.80
20492;DHT22;10404;51.468;6.762;2023-12-04T13:57:13;0.90;80.00
20492;DHT22;10404;51.468;6.762;2023-12-04T13:59:59;0.90;79.80
20492;DHT22;10404;51.468;6.762;2023-12-04T14:02:25;0.90;80.00
20492;DHT22;10404;51.468;6.762;2023-12-04T14:04:50;1.00;79.80
20492;DHT22;10404;51.468;6.762;2023-12-04T14:07:16;1.00;80.00
20492;DHT22;10404;51.468;6.762;2023-12-04T14:09:43;1.00;79.90
20492;DHT22;10404;51.468;6.762;2023-12-04T14:12:10;1.00;80.00
20492;DHT22;10404;51.468;6.762;2023-12-04T14:14:36;1.00;80.10
20492;DHT22;10404;51.468;6.762;2023-12-04T14:17:03;1.00;80.00
20492;DHT22;10404;51.468;6.762;2023-12-04T14:19:30;1.00;80.10
20492;DHT22;10404;51.468;6.762;2023-12-04T14:21:55;1.00;80.00
20492;DHT22;10404;51.468;6.762;2023-12-04T14:24:21;1.00;80.10
20492;DHT22;10404;51.468;6.762;2023-12-04T14:26:47;1.00;80.10
20492;DHT22;10404;51.468;6.762;2023-12-04T14:29:13;1.00;80.10
20492;DHT22;10404;51.468;6.762;2023-12-04T14:31:39;1.00;80.10
20492;DHT22;10404;51.468;6.762;2023-12-04T14:34:05;1.00;80.20
20492;DHT22;10404;51.468;6.762;2023-12-04T14:36:31;1.00;80.00
20492;DHT22;10404;51.468;6.762;2023-12-04T14:39:00;1.00;80.10
20492;DHT22;10404;51.468;6.762;2023-12-04T14:41:26;1.00;80.20
20492;DHT22;10404;51.468;6.762;2023-12-04T14:43:51;1.00;80.20
20492;DHT22;10404;51.468;6.762;2023-12-04T14:46:17;1.00;80.10
20492;DHT22;10404;51.468;6.762;2023-12-04T14:48:42;1.00;80.30
20492;DHT22;10404;51.468;6.762;2023-12-04T14:51:09;1.00;80.20
20492;DHT22;10404;51.468;6.762;2023-12-04T14:53:39;1.00;80.30
20492;DHT22;10404;51.468;6.762;2023-12-04T14:56:35;1.00;80.20
20492;DHT22;10404;51.468;6.762;2023-12-04T14:59:01;1.10;80.20
20492;DHT22;10404;51.468;6.762;2023-12-04T15:01:46;1.10;80.30
20492;DHT22;10404;51.468;6.762;2023-12-04T15:04:30;1.10;80.20
20492;DHT22;10404;51.468;6.762;2023-12-04T15:07:34;1.10;80.30
20492;DHT22;10404;51.468;6.762;2023-12-04T15:10:02;1.10;80.40
20492;DHT22;10404;51.468;6.762;2023-12-04T15:12:36;1.10;80.40
20492;DHT22;10404;51.468;6.762;2023-12-04T15:15:14;1.10;80.40
20492;DHT22;10404;51.468;6.762;2023-12-04T15:17:56;1.10;80.50
20492;DHT22;10404;51.468;6.762;2023-12-04T15:20:41;1.10;80.60
20492;DHT22;10404;51.468;6.762;2023-12-04T15:23:07;1.10;80.50
20492;DHT22;10404;51.468;6.762;2023-12-04T15:25:32;1.10;80.50
20492;DHT22;10404;51.468;6.762;2023-12-04T15:27:58;1.10;80.50
20492;DHT22;10404;51.468;6.762;2023-12-04T15:30:26;1.10;80.50
20492;DHT22;10404;51.468;6.762;2023-12-04T15:32:53;1.10;80.40
20492;DHT22;10404;51.468;6.762;2023-12-04T15:35:19;1.10;80.60
20492;DHT22;10404;51.468;6.762;2023-12-04T15:37:44;1.10;80.60
20492;DHT22;10404;51.468;6.762;2023-12-04T15:40:10;1.10;80.60
20492;DHT22;10404;51.468;6.762;2023-12-04T15:42:36;1.10;80.50
20492;DHT22;10404;51.468;6.762;2023-12-04T15:45:02;1.10;80.60
20492;DHT22;10404;51.468;6.762;2023-12-04T15:47:29;1.10;80.60